Time;durP1;ratioP1;P1;durP2;ratioP2;P2;SDS_P1;SDS_P2;PMS_P1;PMS_P2;Temp;Humidity;BMP_temperature;BMP_pressure;BME280_temperature;BME280_humidity;BME280_pressure;Samples;Min_cycle;Max_cycle;Signal;HPM_P1;HPM_P2
2024/05/06 00:02:08;;;;;;;4.80;4.50;;;15.80;99.90;;;;;;5349574;26;20565;-87
2024/05/06 00:04:36;;;;;;;4.93;4.50;;;15.80;99.90;;;;;;5364133;26;20550;-88
2024/05/06 00:07:05;;;;;;;6.20;4.57;;;15.90;99.90;;;;;;5357502;26;20504;-87
2024/05/06 00:09:36;;;;;;;4.63;4.30;;;15.70;99.90;;;;;;5356947;26;20483;-88
2024/05/06 00:12:05;;;;;;;5.50;5.00;;;15.70;99.90;;;;;;5358306;26;20499;-88
2024/05/06 00:14:34;;;;;;;4.63;4.40;;;;;;;;;;5357499;26;20600;-88
2024/05/06 00:17:02;;;;;;;4.10;3.90;;;;;;;;;;5370682;26;20458;-87
2024/05/06 00:19:31;;;;;;;5.77;4.87;;;15.60;99.90;;;;;;5387856;26;20911;-88
2024/05/06 00:21:59;;;;;;;5.57;5.00;;;15.60;99.90;;;;;;5380371;26;20596;-88
2024/05/06 00:24:28;;;;;;;4.97;4.73;;;15.60;99.90;;;;;;5345446;26;20528;-89
2024/05/06 00:26:59;;;;;;;5.43;5.03;;;15.60;99.90;;;;;;5317582;27;20526;-88
2024/05/06 00:29:27;;;;;;;4.60;4.40;;;15.70;99.90;;;;;;5318902;27;20454;-87
2024/05/06 00:31:56;;;;;;;6.43;5.77;;;15.70;99.90;;;;;;5322399;26;20604;-87
2024/05/06 00:34:24;;;;;;;6.77;6.00;;;15.60;99.90;;;;;;5331141;26;20488;-88
2024/05/06 00:36:53;;;;;;;5.80;5.37;;;15.70;99.90;;;;;;5355198;26;20607;-88
2024/05/06 00:39:21;;;;;;;6.07;5.57;;;15.50;99.90;;;;;;5351238;26;20898;-87
2024/05/06 00:41:49;;;;;;;6.70;6.30;;;15.40;99.90;;;;;;5351668;26;20468;-87
2024/05/06 00:44:20;;;;;;;7.00;6.50;;;15.40;99.90;;;;;;5339155;26;20527;-88
2024/05/06 00:46:49;;;;;;;5.43;5.13;;;15.30;99.90;;;;;;5350757;26;20513;-88
2024/05/06 00:49:18;;;;;;;5.50;5.10;;;15.30;99.90;;;;;;5341499;26;20477;-88
2024/05/06 00:51:46;;;;;;;6.40;6.00;;;15.40;99.90;;;;;;5343980;26;20591;-88
2024/05/06 00:54:15;;;;;;;5.90;5.40;;;15.30;99.90;;;;;;5352702;26;20611;-87
2024/05/06 00:56:45;;;;;;;6.70;6.20;;;15.30;99.90;;;;;;5351853;26;20621;-87
2024/05/06 00:59:16;;;;;;;6.87;6.47;;;15.30;99.90;;;;;;5348040;26;20540;-86
2024/05/06 01:01:49;;;;;;;6.77;6.27;;;15.30;99.90;;;;;;5334177;26;20543;-86
2024/05/06 01:04:18;;;;;;;7.53;6.73;;;15.60;99.90;;;;;;5338920;26;20530;-87
2024/05/06 01:06:46;;;;;;;7.23;6.73;;;15.30;99.90;;;;;;5363117;26;20542;-87
2024/05/06 01:09:15;;;;;;;7.37;6.60;;;15.30;99.90;;;;;;5374208;26;20488;-85
2024/05/06 01:11:43;;;;;;;7.80;7.30;;;15.20;99.90;;;;;;5344675;26;20480;-85
2024/05/06 01:14:12;;;;;;;8.87;8.07;;;15.40;99.90;;;;;;5342945;26;20572;-87
2024/05/06 01:16:40;;;;;;;8.90;8.10;;;15.20;99.90;;;;;;5363587;26;20478;-86
2024/05/06 01:19:11;;;;;;;8.47;7.67;;;15.20;99.90;;;;;;5352936;26;20475;-88
2024/05/06 01:21:42;;;;;;;7.77;7.20;;;15.20;99.90;;;;;;5349940;26;20556;-87
2024/05/06 01:24:14;;;;;;;8.10;7.50;;;15.20;99.90;;;;;;5347403;26;20490;-86
2024/05/06 01:26:42;;;;;;;9.67;8.87;;;15.20;99.90;;;;;;5374497;26;20502;-89
2024/05/06 01:29:10;;;;;;;9.37;8.57;;;15.10;99.90;;;;;;5320876;26;20484;-89
2024/05/06 01:31:39;;;;;;;9.77;8.97;;;15.10;99.90;;;;;;5347438;26;20474;-90
2024/05/06 01:34:07;;;;;;;9.83;9.03;;;15.10;99.90;;;;;;5377805;26;20603;-90
2024/05/06 01:36:36;;;;;;;10.07;9.17;;;15.40;99.90;;;;;;5361752;26;20480;-88
2024/05/06 01:39:04;;;;;;;9.93;9.20;;;15.10;99.90;;;;;;5362835;26;20570;-89
2024/05/06 01:41:36;;;;;;;10.47;9.40;;;15.10;99.90;;;;;;5362562;26;20555;-90
2024/05/06 01:44:04;;;;;;;12.43;10.57;;;15.10;99.90;;;;;;5379723;26;20482;-89
2024/05/06 01:46:33;;;;;;;10.43;9.27;;;15.30;99.90;;;;;;5370411;26;20484;-89
2024/05/06 01:49:01;;;;;;;10.47;9.57;;;15.00;99.90;;;;;;5362553;26;20484;-88
2024/05/06 01:51:29;;;;;;;9.07;8.37;;;15.00;99.90;;;;;;5355481;26;20487;-88
2024/05/06 01:53:58;;;;;;;11.23;10.30;;;15.10;99.90;;;;;;5354209;26;20489;-87
2024/05/06 01:56:26;;;;;;;11.07;10.07;;;15.00;99.90;;;;;;5346524;26;20562;-87
2024/05/06 01:58:57;;;;;;;9.60;8.80;;;14.90;99.90;;;;;;5361600;26;20530;-87
2024/05/06 02:01:25;;;;;;;10.17;9.20;;;15.00;99.90;;;;;;5393816;26;20952;-88
2024/05/06 02:03:54;;;;;;;11.87;10.80;;;15.10;99.90;;;;;;5351500;26;20578;-87
2024/05/06 02:06:22;;;;;;;10.10;9.10;;;14.90;99.90;;;;;;5337078;26;20477;-88
2024/05/06 02:08:51;;;;;;;11.20;10.30;;;14.90;99.90;;;;;;5344434;26;21077;-86
2024/05/06 02:11:22;;;;;;;10.33;9.43;;;14.90;99.90;;;;;;5354680;26;21034;-86
2024/05/06 02:13:50;;;;;;;10.83;9.83;;;14.90;99.90;;;;;;5336060;26;20544;-87
2024/05/06 02:16:21;;;;;;;10.37;9.30;;;14.80;99.90;;;;;;5372129;26;20483;-86
2024/05/06 02:18:50;;;;;;;9.70;8.90;;;14.80;99.90;;;;;;5385975;26;20576;-87
2024/05/06 02:21:20;;;;;;;10.40;9.50;;;14.80;99.90;;;;;;5386364;26;20949;-87
2024/05/06 02:23:48;;;;;;;10.33;9.43;;;14.80;99.90;;;;;;5346023;26;20541;-87
2024/05/06 02:26:17;;;;;;;11.33;9.73;;;14.80;99.90;;;;;;5330925;26;20548;-86
2024/05/06 02:28:46;;;;;;;13.33;11.10;;;15.10;99.90;;;;;;5328210;26;20499;-86
2024/05/06 02:31:14;;;;;;;11.03;9.70;;;14.90;99.90;;;;;;5340281;26;20484;-86
2024/05/06 02:33:45;;;;;;;10.40;9.50;;;14.70;99.90;;;;;;5353041;26;20591;-87
2024/05/06 02:36:13;;;;;;;12.27;11.10;;;14.90;99.90;;;;;;5330955;26;21083;-87
2024/05/06 02:38:42;;;;;;;11.23;10.23;;;14.60;99.90;;;;;;5381530;26;20494;-86
2024/05/06 02:41:12;;;;;;;10.30;9.40;;;14.50;99.90;;;;;;5376672;26;20599;-88
2024/05/06 02:43:41;;;;;;;10.60;9.70;;;14.50;99.90;;;;;;5352200;26;20918;-89
2024/05/06 02:46:09;;;;;;;11.53;10.53;;;14.70;99.90;;;;;;5353563;26;20551;-88
2024/05/06 02:48:40;;;;;;;12.93;11.73;;;14.80;99.90;;;;;;5356453;26;20467;-89
2024/05/06 02:51:12;;;;;;;10.70;9.73;;;14.50;99.90;;;;;;5349391;26;20541;-87
2024/05/06 02:53:40;;;;;;;16.30;12.20;;;14.40;99.90;;;;;;5329466;26;20600;-88
2024/05/06 02:56:10;;;;;;;11.90;10.80;;;14.40;99.90;;;;;;5349568;26;20493;-86
2024/05/06 02:58:39;;;;;;;12.60;11.40;;;14.40;99.90;;;;;;5351392;26;20480;-87
2024/05/06 03:01:07;;;;;;;12.60;11.40;;;14.60;99.90;;;;;;5350798;26;20461;-86
2024/05/06 03:03:35;;;;;;;12.17;10.97;;;14.40;99.90;;;;;;5351060;26;20547;-85
2024/05/06 03:06:06;;;;;;;12.10;11.00;;;14.20;99.90;;;;;;5349613;26;20543;-85
2024/05/06 03:08:42;;;;;;;12.97;11.67;;;14.20;99.90;;;;;;5350695;26;20454;-87
2024/05/06 03:11:10;;;;;;;13.00;11.70;;;14.20;99.90;;;;;;5351010;26;21063;-87
2024/05/06 03:13:40;;;;;;;12.63;11.53;;;14.20;99.90;;;;;;5345350;26;21074;-87
2024/05/06 03:16:09;;;;;;;12.23;11.00;;;14.10;99.90;;;;;;5349713;26;20581;-86
2024/05/06 03:18:37;;;;;;;13.10;11.90;;;14.10;99.90;;;;;;5331702;26;20616;-86
2024/05/06 03:21:11;;;;;;;12.33;11.23;;;14.10;99.90;;;;;;5322432;26;20478;-86
2024/05/06 03:23:42;;;;;;;11.50;10.40;;;14.10;99.90;;;;;;5339309;26;20536;-87
2024/05/06 03:26:11;;;;;;;13.30;12.00;;;14.30;99.90;;;;;;5349600;26;20583;-87
2024/05/06 03:28:39;;;;;;;11.53;10.57;;;14.10;99.90;;;;;;5350092;26;20844;-87
2024/05/06 03:31:07;;;;;;;12.63;11.53;;;14.10;99.90;;;;;;5371427;26;20592;-88
2024/05/06 03:33:36;;;;;;;12.43;11.33;;;14.10;99.90;;;;;;5350018;26;20553;-87
2024/05/06 03:36:07;;;;;;;11.97;10.87;;;14.10;99.90;;;;;;5350519;26;20533;-86
2024/05/06 03:38:36;;;;;;;10.50;9.60;;;14.00;99.90;;;;;;5349176;26;20504;-86
2024/05/06 03:41:07;;;;;;;12.60;11.37;;;14.10;99.90;;;;;;5352682;26;20573;-87
2024/05/06 03:43:36;;;;;;;11.33;10.07;;;14.10;99.90;;;;;;5359745;26;20549;-88
2024/05/06 03:46:05;;;;;;;11.20;10.10;;;14.40;99.90;;;;;;5331674;26;20532;-87
2024/05/06 03:48:33;;;;;;;13.50;12.10;;;14.20;99.90;;;;;;5315197;26;21124;-87
2024/05/06 03:51:01;;;;;;;12.90;11.67;;;14.20;99.90;;;;;;5321608;26;20899;-87
2024/05/06 03:53:30;;;;;;;12.90;11.70;;;14.30;99.90;;;;;;5325969;26;20469;-87
2024/05/06 03:55:58;;;;;;;11.80;10.60;;;14.10;99.90;;;;;;5349684;26;20476;-87
2024/05/06 03:58:29;;;;;;;12.57;11.37;;;14.20;99.90;;;;;;5371223;26;20576;-85
2024/05/06 04:00:58;;;;;;;12.23;11.10;;;14.10;99.90;;;;;;5394133;26;20464;-86
2024/05/06 04:03:26;;;;;;;11.20;10.20;;;14.20;99.90;;;;;;5376912;26;20474;-87
2024/05/06 04:05:54;;;;;;;12.03;10.70;;;14.00;99.90;;;;;;5352745;26;20548;-87
2024/05/06 04:08:23;;;;;;;11.10;10.03;;;14.00;99.90;;;;;;5372197;26;20538;-86
2024/05/06 04:10:54;;;;;;;11.03;9.93;;;14.00;99.90;;;;;;5336204;26;20485;-86
2024/05/06 04:13:23;;;;;;;12.43;11.23;;;14.00;99.90;;;;;;5361082;26;21110;-86
2024/05/06 04:15:54;;;;;;;11.83;10.70;;;14.00;99.90;;;;;;5356126;26;20624;-87
2024/05/06 04:18:22;;;;;;;12.27;11.07;;;13.90;99.90;;;;;;5349894;26;20482;-85
2024/05/06 04:20:51;;;;;;;10.30;9.40;;;13.90;99.90;;;;;;5335390;26;20565;-87
2024/05/06 04:28:59;;;;;;;11.47;10.47;;;14.40;99.90;;;;;;5378502;26;20500;-87
2024/05/06 04:31:30;;;;;;;11.37;10.40;;;14.50;99.90;;;;;;5379275;26;21139;-86
2024/05/06 04:33:59;;;;;;;12.77;11.60;;;14.10;99.90;;;;;;5359559;26;20588;-85
2024/05/06 04:36:27;;;;;;;12.43;11.27;;;13.90;99.90;;;;;;5337368;26;20570;-86
2024/05/06 04:38:55;;;;;;;13.03;11.83;;;13.90;99.90;;;;;;5344147;26;20479;-85
2024/05/06 04:41:24;;;;;;;12.30;11.10;;;14.00;99.90;;;;;;5354971;26;20955;-86
2024/05/06 04:43:53;;;;;;;12.53;11.27;;;14.00;99.90;;;;;;5353741;26;20506;-87
2024/05/06 04:46:21;;;;;;;13.27;12.00;;;14.00;99.90;;;;;;5347980;26;20499;-88
2024/05/06 04:48:52;;;;;;;13.43;12.17;;;14.30;99.90;;;;;;5334649;26;20473;-87
2024/05/06 04:51:20;;;;;;;13.37;12.07;;;14.00;99.90;;;;;;5331095;26;20520;-87
2024/05/06 04:53:49;;;;;;;13.63;12.27;;;14.10;99.90;;;;;;5336533;26;20525;-87
2024/05/06 04:56:18;;;;;;;12.27;11.03;;;14.20;99.90;;;;;;5375912;26;20489;-87
2024/05/06 04:58:48;;;;;;;11.17;10.27;;;14.10;99.90;;;;;;5375551;26;20564;-87
2024/05/06 05:01:16;;;;;;;13.40;12.00;;;14.30;99.90;;;;;;5341446;26;20472;-86
2024/05/06 05:03:45;;;;;;;11.80;10.80;;;14.40;99.90;;;;;;5348035;26;20477;-86
2024/05/06 05:06:19;;;;;;;12.13;11.10;;;14.20;99.90;;;;;;5348700;26;20449;-90
2024/05/06 05:08:48;;;;;;;12.77;11.57;;;14.30;99.90;;;;;;5357285;26;20503;-89
2024/05/06 05:11:17;;;;;;;13.20;11.80;;;14.30;99.90;;;;;;5337660;26;20964;-85
2024/05/06 05:13:45;;;;;;;12.33;11.13;;;14.50;99.90;;;;;;5334538;26;20981;-85
2024/05/06 05:16:14;;;;;;;12.57;11.27;;;14.30;99.90;;;;;;5333393;26;20594;-85
2024/05/06 05:18:42;;;;;;;13.73;12.20;;;14.20;99.90;;;;;;5347727;26;20520;-84
2024/05/06 05:21:11;;;;;;;11.10;10.00;;;14.50;99.90;;;;;;5355781;26;20632;-86
2024/05/06 05:23:42;;;;;;;12.20;11.10;;;14.30;99.90;;;;;;5352425;26;20479;-86
2024/05/06 05:26:10;;;;;;;13.03;11.80;;;14.20;99.90;;;;;;5380637;26;20911;-85
2024/05/06 05:28:38;;;;;;;11.30;10.10;;;14.30;99.90;;;;;;5344857;26;20973;-86
2024/05/06 05:31:07;;;;;;;10.90;9.90;;;14.40;99.90;;;;;;5337806;26;20491;-87
2024/05/06 05:33:35;;;;;;;12.20;10.40;;;14.70;99.90;;;;;;5352782;26;20615;-84
2024/05/06 05:36:04;;;;;;;11.30;10.20;;;14.50;99.90;;;;;;5344033;26;20637;-82
2024/05/06 05:38:32;;;;;;;10.43;9.20;;;14.50;99.90;;;;;;5367412;26;20558;-84
2024/05/06 05:41:04;;;;;;;10.50;9.60;;;14.60;99.90;;;;;;5348863;26;20531;-83
2024/05/06 05:43:32;;;;;;;11.43;10.23;;;14.70;99.90;;;;;;5340140;26;20540;-83
2024/05/06 05:46:01;;;;;;;11.60;9.90;;;14.70;99.90;;;;;;5340687;26;21103;-84
2024/05/06 05:48:29;;;;;;;10.33;9.17;;;14.80;99.90;;;;;;5344129;26;20475;-84
2024/05/06 05:50:58;;;;;;;10.03;9.13;;;14.90;99.90;;;;;;5347336;26;20528;-83
2024/05/06 05:53:26;;;;;;;10.37;8.87;;;15.00;99.90;;;;;;5327225;26;20934;-82
2024/05/06 05:55:54;;;;;;;9.20;8.37;;;15.00;99.90;;;;;;5354822;26;20547;-83
2024/05/06 05:58:25;;;;;;;9.40;8.57;;;15.10;99.90;;;;;;5364075;26;20536;-84
2024/05/06 06:00:54;;;;;;;9.63;8.73;;;15.10;99.90;;;;;;5353867;26;20489;-83
2024/05/06 06:03:22;;;;;;;9.90;9.10;;;15.00;99.90;;;;;;5371597;26;20568;-83
2024/05/06 06:05:51;;;;;;;9.87;8.87;;;15.10;99.90;;;;;;5344829;26;20476;-84
2024/05/06 06:08:19;;;;;;;9.47;8.30;;;15.10;99.90;;;;;;5345289;26;20607;-84
2024/05/06 06:10:47;;;;;;;9.13;8.40;;;15.40;99.90;;;;;;5343189;26;20958;-83
2024/05/06 06:13:16;;;;;;;7.70;7.10;;;15.40;99.90;;;;;;5344421;26;20464;-84
2024/05/06 06:15:47;;;;;;;8.43;7.53;;;15.40;99.90;;;;;;5344473;26;20960;-83
2024/05/06 06:18:15;;;;;;;8.23;7.53;;;15.50;99.90;;;;;;5344647;26;20524;-83
2024/05/06 06:20:44;;;;;;;8.43;6.13;;;15.60;99.90;;;;;;5349875;26;20607;-85
2024/05/06 06:23:12;;;;;;;6.50;6.00;;;15.70;99.90;;;;;;5378540;26;20543;-84
2024/05/06 06:25:40;;;;;;;5.73;5.33;;;15.80;99.90;;;;;;5359637;26;20707;-83
2024/05/06 06:28:09;;;;;;;5.80;5.30;;;15.80;99.90;;;;;;5309726;26;21158;-84
2024/05/06 06:30:37;;;;;;;5.40;5.00;;;15.90;99.90;;;;;;5317111;26;20944;-84
2024/05/06 06:33:08;;;;;;;5.10;4.70;;;16.00;99.90;;;;;;5379018;26;20506;-84
2024/05/06 06:35:36;;;;;;;5.20;4.90;;;16.10;99.90;;;;;;5380679;26;20586;-84
2024/05/06 06:38:08;;;;;;;3.90;3.60;;;16.10;99.90;;;;;;5382367;26;20891;-84
2024/05/06 06:40:36;;;;;;;4.03;3.30;;;16.20;99.40;;;;;;5355298;26;20533;-85
2024/05/06 06:43:06;;;;;;;3.60;3.30;;;16.30;97.40;;;;;;5367348;26;20579;-84
2024/05/06 06:45:34;;;;;;;3.80;3.50;;;16.40;97.40;;;;;;5347587;26;20575;-84
2024/05/06 06:48:02;;;;;;;4.40;4.00;;;16.60;97.70;;;;;;5347862;26;20483;-84
2024/05/06 06:50:33;;;;;;;3.40;3.10;;;16.70;97.10;;;;;;5348445;26;20852;-84
2024/05/06 06:53:02;;;;;;;4.70;4.40;;;17.10;97.20;;;;;;5351317;26;20542;-84
2024/05/06 06:55:30;;;;;;;4.90;3.77;;;17.00;97.20;;;;;;5433420;21;20578;-84
2024/05/06 06:57:58;;;;;;;4.00;3.70;;;17.10;96.20;;;;;;5454072;26;20573;-83
2024/05/06 07:00:27;;;;;;;2.93;2.73;;;17.30;95.60;;;;;;5454852;26;20463;-84
2024/05/06 07:02:55;;;;;;;4.00;3.07;;;17.40;95.70;;;;;;5458802;26;20581;-83
2024/05/06 07:05:25;;;;;;;2.63;2.43;;;17.40;95.20;;;;;;5431234;26;20499;-84
2024/05/06 07:07:56;;;;;;;2.63;2.43;;;17.70;94.70;;;;;;5421295;26;20514;-83
2024/05/06 07:10:25;;;;;;;2.63;2.50;;;17.60;94.30;;;;;;5418646;26;21092;-84
2024/05/06 07:12:53;;;;;;;2.60;2.43;;;17.80;93.90;;;;;;5450989;26;20530;-85
2024/05/06 07:15:21;;;;;;;2.13;2.03;;;17.90;93.60;;;;;;5421390;26;20551;-84
2024/05/06 07:17:50;;;;;;;3.23;2.70;;;18.30;93.10;;;;;;5439751;26;20583;-83
2024/05/06 07:20:18;;;;;;;4.00;2.37;;;18.00;92.50;;;;;;5455164;26;20603;-84
2024/05/06 07:22:46;;;;;;;2.47;2.37;;;18.00;92.40;;;;;;5419917;26;20474;-83
2024/05/06 07:25:18;;;;;;;2.33;2.23;;;18.20;92.10;;;;;;5420460;26;20553;-83
2024/05/06 07:27:46;;;;;;;2.27;2.07;;;18.30;92.20;;;;;;5453042;26;20554;-84
2024/05/06 07:30:15;;;;;;;2.23;2.03;;;18.50;91.30;;;;;;5455905;26;20520;-83
2024/05/06 07:32:44;;;;;;;2.30;2.20;;;18.60;91.80;;;;;;5421597;26;20580;-83
2024/05/06 07:35:12;;;;;;;2.20;2.10;;;18.70;90.70;;;;;;5419279;26;20465;-83
2024/05/06 07:37:41;;;;;;;2.00;1.90;;;18.80;90.10;;;;;;5418630;26;20595;-83
2024/05/06 07:40:10;;;;;;;1.93;1.83;;;18.90;90.20;;;;;;5424720;26;20562;-84
2024/05/06 07:42:42;;;;;;;2.37;2.27;;;19.00;90.10;;;;;;5425991;26;20482;-83
2024/05/06 07:45:10;;;;;;;2.10;2.00;;;19.10;89.50;;;;;;5419961;26;20522;-84
2024/05/06 07:47:39;;;;;;;1.70;1.60;;;19.20;89.30;;;;;;5430490;26;21075;-84
2024/05/06 07:50:08;;;;;;;2.83;1.93;;;19.30;88.30;;;;;;5455842;26;20567;-84
2024/05/06 07:52:36;;;;;;;1.50;1.40;;;19.30;87.60;;;;;;5455528;26;20593;-84
2024/05/06 07:55:04;;;;;;;2.00;1.90;;;19.50;86.60;;;;;;5434528;26;20498;-84
2024/05/06 07:57:33;;;;;;;1.30;1.20;;;19.70;84.50;;;;;;5425496;26;20481;-84
2024/05/06 08:00:04;;;;;;;1.30;1.20;;;19.90;82.40;;;;;;5456093;26;20462;-83
2024/05/06 08:02:32;;;;;;;1.50;1.40;;;20.10;82.20;;;;;;5457894;26;20517;-84
2024/05/06 08:05:02;;;;;;;4.60;1.57;;;20.40;80.40;;;;;;5457542;26;20532;-84
2024/05/06 08:07:31;;;;;;;1.50;1.40;;;20.70;79.40;;;;;;5451426;26;20530;-84
2024/05/06 08:09:59;;;;;;;1.30;1.20;;;20.80;79.30;;;;;;5449884;26;20481;-84
2024/05/06 08:12:27;;;;;;;1.27;1.10;;;21.00;78.90;;;;;;5417844;26;20483;-84
2024/05/06 08:14:56;;;;;;;1.37;1.27;;;21.30;78.00;;;;;;5419923;26;20515;-84
2024/05/06 08:17:27;;;;;;;1.00;1.00;;;21.80;75.80;;;;;;5422139;26;20575;-84
2024/05/06 08:19:55;;;;;;;2.43;1.53;;;22.30;69.30;;;;;;5455488;26;20549;-84
2024/05/06 08:22:24;;;;;;;1.57;1.47;;;22.90;75.20;;;;;;5452909;26;20472;-84
2024/05/06 08:24:52;;;;;;;1.30;1.20;;;23.70;73.60;;;;;;5417628;26;20596;-84
2024/05/06 08:27:20;;;;;;;1.27;1.17;;;24.50;71.70;;;;;;5419625;26;20503;-85
2024/05/06 08:29:49;;;;;;;2.40;1.30;;;25.40;73.00;;;;;;5416473;26;20599;-84
2024/05/06 08:32:19;;;;;;;1.30;1.20;;;26.20;69.10;;;;;;5419555;26;20459;-84
2024/05/06 08:34:50;;;;;;;1.17;1.07;;;27.00;68.20;;;;;;5437661;26;20477;-84
2024/05/06 08:37:19;;;;;;;1.10;1.00;;;27.60;65.40;;;;;;5456087;26;20473;-84
2024/05/06 08:39:47;;;;;;;1.00;1.00;;;28.30;60.10;;;;;;5424604;26;20624;-84
2024/05/06 08:42:16;;;;;;;1.27;1.17;;;28.80;56.80;;;;;;5419643;26;20470;-83
2024/05/06 08:44:46;;;;;;;1.20;1.10;;;29.10;60.30;;;;;;5432271;26;20556;-84
2024/05/06 08:47:16;;;;;;;1.03;0.93;;;29.50;55.00;;;;;;5444153;26;20880;-83
2024/05/06 08:49:46;;;;;;;0.97;0.97;;;29.80;54.30;;;;;;5417601;26;20621;-83
2024/05/06 08:52:19;;;;;;;0.97;0.87;;;30.10;54.50;;;;;;5417282;26;20507;-84
2024/05/06 08:54:47;;;;;;;1.63;0.90;;;30.40;52.60;;;;;;5427789;26;20462;-84
2024/05/06 08:57:17;;;;;;;1.33;0.80;;;30.90;52.20;;;;;;5416531;26;20522;-84
2024/05/06 08:59:47;;;;;;;0.83;0.73;;;31.40;54.20;;;;;;5416619;26;20463;-81
2024/05/06 09:02:15;;;;;;;0.80;0.80;;;32.10;54.40;;;;;;5415446;26;20549;-81
2024/05/06 09:04:45;;;;;;;1.33;1.00;;;32.70;59.10;;;;;;5432445;26;20622;-82
2024/05/06 09:07:13;;;;;;;1.17;1.07;;;33.30;55.60;;;;;;5453155;26;20922;-82
2024/05/06 09:09:44;;;;;;;2.23;2.10;;;33.90;49.50;;;;;;5452547;26;21127;-82
2024/05/06 09:12:12;;;;;;;1.00;0.70;;;34.50;44.00;;;;;;5432528;26;20549;-82
2024/05/06 09:14:46;;;;;;;0.90;0.80;;;35.00;41.10;;;;;;5452592;26;20601;-82
2024/05/06 09:17:18;;;;;;;0.90;0.80;;;35.20;38.30;;;;;;5438788;26;20473;-82
2024/05/06 09:19:46;;;;;;;0.80;0.80;;;35.40;35.90;;;;;;5417138;26;20949;-81
2024/05/06 09:22:15;;;;;;;1.13;0.90;;;35.50;35.30;;;;;;5419503;26;20466;-81
2024/05/06 09:24:46;;;;;;;0.97;0.87;;;35.20;34.70;;;;;;5453105;26;20601;-81
2024/05/06 09:27:14;;;;;;;4.40;0.80;;;34.80;34.30;;;;;;5449808;26;20571;-82
2024/05/06 09:29:43;;;;;;;1.10;0.80;;;34.80;36.20;;;;;;5452691;26;20570;-81
2024/05/06 09:32:12;;;;;;;1.27;0.80;;;34.90;36.30;;;;;;5443672;26;21120;-82
2024/05/06 09:34:43;;;;;;;1.00;0.80;;;34.80;35.70;;;;;;5452386;26;20472;-82
2024/05/06 09:37:15;;;;;;;0.77;0.77;;;35.10;35.90;;;;;;5452382;26;20560;-82
2024/05/06 09:39:52;;;;;;;1.00;0.80;;;35.10;34.00;;;;;;5447782;26;20509;-82
2024/05/06 09:42:22;;;;;;;1.33;0.80;;;35.10;34.10;;;;;;5416279;26;20605;-84
2024/05/06 09:44:51;;;;;;;1.00;0.90;;;35.00;34.10;;;;;;5417912;26;20459;-84
2024/05/06 09:47:20;;;;;;;1.73;0.80;;;34.70;32.90;;;;;;5415874;26;20443;-85
2024/05/06 09:49:49;;;;;;;2.07;1.00;;;34.00;32.90;;;;;;5413552;26;20546;-84
2024/05/06 09:52:18;;;;;;;0.80;0.80;;;33.40;32.80;;;;;;5443336;26;20608;-84
2024/05/06 09:54:52;;;;;;;0.80;0.70;;;33.10;32.80;;;;;;5451969;26;20461;-84
2024/05/06 09:57:23;;;;;;;2.10;0.93;;;33.00;34.40;;;;;;5451758;26;20528;-84
2024/05/06 09:59:53;;;;;;;1.43;0.73;;;33.20;33.30;;;;;;5451470;26;20473;-81
2024/05/06 10:02:21;;;;;;;0.80;0.80;;;33.70;32.40;;;;;;5451545;26;20524;-81
2024/05/06 10:04:51;;;;;;;0.83;0.83;;;34.20;32.90;;;;;;5449096;26;20571;-81
2024/05/06 10:07:23;;;;;;;1.57;0.87;;;34.90;31.80;;;;;;5413910;26;20486;-82
2024/05/06 10:09:58;;;;;;;1.10;0.80;;;35.80;33.40;;;;;;5422158;26;20542;-82
2024/05/06 10:12:29;;;;;;;1.63;1.27;;;36.50;32.70;;;;;;5455721;26;20851;-81
2024/05/06 10:15:02;;;;;;;0.87;0.87;;;37.00;32.90;;;;;;5415964;26;20541;-83
2024/05/06 10:17:38;;;;;;;1.00;0.80;;;37.30;32.10;;;;;;5419686;26;20457;-82
2024/05/06 10:20:14;;;;;;;1.27;0.90;;;37.30;31.20;;;;;;5418855;26;20988;-82
2024/05/06 10:22:44;;;;;;;0.80;0.80;;;37.00;31.30;;;;;;5419134;26;20509;-81
2024/05/06 10:25:19;;;;;;;1.90;1.00;;;36.30;31.60;;;;;;5454954;26;20477;-82
2024/05/06 10:27:52;;;;;;;0.93;0.90;;;35.50;31.50;;;;;;5441994;26;21021;-82
2024/05/06 10:30:21;;;;;;;1.10;0.80;;;34.60;32.50;;;;;;5417757;26;20530;-82
2024/05/06 10:32:50;;;;;;;0.90;0.90;;;33.60;32.10;;;;;;5420035;26;20502;-84
2024/05/06 10:35:18;;;;;;;1.20;1.10;;;32.40;31.40;;;;;;5454927;26;20807;-84
2024/05/06 10:37:50;;;;;;;1.10;1.00;;;31.60;31.40;;;;;;5455319;26;20513;-84
2024/05/06 10:40:21;;;;;;;1.30;1.20;;;30.70;32.10;;;;;;5454338;26;20539;-85
2024/05/06 10:42:50;;;;;;;1.20;1.10;;;29.70;32.00;;;;;;5439605;26;20562;-84
2024/05/06 10:45:21;;;;;;;1.27;1.17;;;28.80;32.30;;;;;;5421041;26;20554;-83
2024/05/06 10:47:51;;;;;;;2.40;1.20;;;28.00;33.20;;;;;;5418318;26;20447;-85
2024/05/06 10:50:20;;;;;;;2.53;1.30;;;27.50;34.80;;;;;;5418005;26;20522;-86
2024/05/06 10:52:49;;;;;;;140.80;14.47;;;27.10;35.90;;;;;;5418009;26;20537;-85
2024/05/06 10:55:21;;;;;;;1.93;1.50;;;26.50;35.40;;;;;;5417594;26;20542;-85
2024/05/06 10:57:49;;;;;;;2.17;1.93;;;26.00;35.40;;;;;;5418396;26;20569;-85
2024/05/06 11:00:18;;;;;;;1.77;1.67;;;25.20;37.50;;;;;;5436465;26;20561;-86
2024/05/06 11:02:47;;;;;;;1.70;1.60;;;24.80;39.10;;;;;;5428470;26;20522;-85
2024/05/06 11:05:15;;;;;;;2.23;2.10;;;24.50;39.30;;;;;;5418810;26;20474;-86
2024/05/06 11:07:44;;;;;;;2.00;1.90;;;24.20;38.80;;;;;;5417593;26;20450;-85
2024/05/06 11:10:13;;;;;;;3.53;1.70;;;23.90;38.70;;;;;;5417115;26;20446;-85
2024/05/06 11:12:44;;;;;;;1.80;1.70;;;23.60;39.30;;;;;;5424420;26;20620;-86
2024/05/06 11:15:13;;;;;;;1.60;1.50;;;23.40;40.10;;;;;;5452297;26;20612;-85
2024/05/06 11:17:41;;;;;;;1.90;1.80;;;23.20;41.90;;;;;;5422880;26;20538;-85
2024/05/06 11:20:12;;;;;;;2.10;1.97;;;23.10;42.30;;;;;;5416633;26;20953;-84
2024/05/06 11:22:40;;;;;;;3.53;1.80;;;23.10;43.20;;;;;;5427258;26;20811;-85
2024/05/06 11:25:10;;;;;;;2.70;1.83;;;22.90;44.20;;;;;;5416593;26;20959;-84
2024/05/06 11:27:39;;;;;;;1.87;1.77;;;22.90;45.20;;;;;;5436770;26;21028;-89
2024/05/06 11:30:12;;;;;;;2.73;1.90;;;22.70;44.20;;;;;;5453229;26;20461;-88
2024/05/06 11:32:41;;;;;;;1.90;1.80;;;22.70;44.70;;;;;;5441469;26;20525;-88
2024/05/06 11:35:09;;;;;;;1.87;1.77;;;22.60;45.30;;;;;;5454359;26;20541;-89
2024/05/06 11:37:38;;;;;;;2.10;2.00;;;22.60;45.70;;;;;;5430151;26;20486;-89
2024/05/06 11:40:07;;;;;;;1.90;1.80;;;22.60;44.80;;;;;;5419646;26;21058;-89
2024/05/06 11:42:35;;;;;;;2.03;1.83;;;22.50;44.60;;;;;;5423594;26;21146;-89
2024/05/06 11:45:04;;;;;;;2.00;1.90;;;22.50;44.20;;;;;;5453878;26;20533;-88
2024/05/06 11:47:35;;;;;;;1.50;1.40;;;22.50;44.20;;;;;;5454186;26;20529;-88
2024/05/06 11:50:03;;;;;;;1.80;1.70;;;22.70;44.30;;;;;;5454649;26;20554;-88
2024/05/06 11:52:32;;;;;;;1.77;1.67;;;22.50;44.50;;;;;;5450207;26;20461;-88
2024/05/06 11:55:03;;;;;;;1.80;1.70;;;22.40;44.90;;;;;;5422149;26;20482;-89
2024/05/06 11:57:32;;;;;;;1.90;1.80;;;22.30;44.40;;;;;;5454473;26;20512;-89
2024/05/06 12:00:00;;;;;;;1.60;1.50;;;22.10;44.60;;;;;;5453454;26;20623;-89
2024/05/06 12:02:29;;;;;;;1.53;1.43;;;22.10;44.30;;;;;;5452794;26;21067;-88
2024/05/06 12:05:00;;;;;;;1.87;1.77;;;22.00;45.10;;;;;;5452864;26;20946;-88
2024/05/06 12:07:29;;;;;;;2.00;1.90;;;22.00;44.70;;;;;;5452953;26;20575;-89
2024/05/06 12:09:57;;;;;;;1.70;1.60;;;22.00;44.50;;;;;;5428223;26;20527;-88
2024/05/06 12:12:26;;;;;;;2.20;2.10;;;21.90;44.40;;;;;;5434066;26;20481;-89
2024/05/06 12:14:54;;;;;;;1.70;1.60;;;21.80;44.10;;;;;;5457663;26;20544;-89
2024/05/06 12:17:23;;;;;;;2.57;1.90;;;21.80;44.70;;;;;;5457404;26;20467;-89
2024/05/06 12:19:51;;;;;;;5.43;2.17;;;21.80;44.80;;;;;;5453283;26;20509;-90
2024/05/06 12:22:22;;;;;;;1.90;1.80;;;21.80;44.70;;;;;;5440701;26;20527;-88
2024/05/06 12:24:51;;;;;;;2.17;2.07;;;21.80;44.30;;;;;;5448468;26;20680;-88
2024/05/06 12:27:19;;;;;;;2.10;2.00;;;21.70;44.50;;;;;;5453380;26;20611;-89
2024/05/06 12:29:47;;;;;;;2.00;1.90;;;21.70;45.10;;;;;;5431484;26;20494;-89
2024/05/06 12:32:16;;;;;;;2.10;2.00;;;21.70;44.60;;;;;;5423795;26;20522;-89
2024/05/06 12:34:45;;;;;;;1.90;1.80;;;21.90;45.20;;;;;;5421385;26;20521;-89
2024/05/06 12:37:13;;;;;;;2.10;2.00;;;21.80;44.80;;;;;;5422454;26;20568;-89
2024/05/06 12:39:44;;;;;;;1.90;1.80;;;21.80;44.90;;;;;;5420019;26;20567;-89
2024/05/06 12:42:13;;;;;;;2.10;2.00;;;21.80;44.80;;;;;;5420661;26;20522;-89
2024/05/06 12:44:41;;;;;;;1.90;1.80;;;21.90;44.50;;;;;;5420629;26;20491;-88
2024/05/06 12:47:10;;;;;;;1.90;1.80;;;21.80;44.40;;;;;;5418783;26;20976;-89
2024/05/06 12:49:38;;;;;;;1.90;1.80;;;22.00;44.70;;;;;;5421796;26;20518;-89
2024/05/06 12:52:07;;;;;;;3.20;2.33;;;21.80;44.60;;;;;;5427204;26;20534;-90
2024/05/06 12:54:35;;;;;;;1.70;1.60;;;21.80;45.10;;;;;;5419340;26;20502;-88
2024/05/06 12:57:06;;;;;;;1.90;1.80;;;21.80;45.20;;;;;;5452208;26;20525;-88
2024/05/06 12:59:35;;;;;;;2.00;1.90;;;21.80;45.00;;;;;;5459753;26;20461;-88